Time;durP1;ratioP1;P1;durP2;ratioP2;P2;SDS_P1;SDS_P2;PMS_P1;PMS_P2;Temp;Humidity;BMP_temperature;BMP_pressure;BME280_temperature;BME280_humidity;BME280_pressure;Samples;Min_cycle;Max_cycle;Signal;HPM_P1;HPM_P2
2023/03/24 04:00:31;;;;;;;12.87;11.87;;;12.70;99.90;;;;;;5932387;23;20417;31
2023/03/24 04:03:06;;;;;;;10.27;9.40;;;12.70;99.90;;;;;;4878037;29;20212;-76
2023/03/24 04:05:41;;;;;;;9.07;8.47;;;12.70;99.90;;;;;;4880567;29;20191;-76
2023/03/24 04:08:30;;;;;;;8.93;8.13;;;12.60;99.90;;;;;;4880875;29;20723;-76
2023/03/24 04:11:17;;;;;;;9.37;8.40;;;12.60;99.90;;;;;;4875123;29;20719;-76
2023/03/24 04:14:05;;;;;;;8.17;7.67;;;12.60;99.90;;;;;;4888971;23;21429;-72
2023/03/24 04:16:49;;;;;;;9.47;8.77;;;12.60;99.90;;;;;;4899024;29;20196;-72
2023/03/24 04:19:18;;;;;;;8.23;7.83;;;12.70;99.90;;;;;;4881675;29;20188;-72
2023/03/24 04:22:03;;;;;;;8.60;8.10;;;12.60;99.90;;;;;;4881727;29;20183;-73
2023/03/24 04:24:50;;;;;;;8.60;8.00;;;12.70;99.90;;;;;;4898603;29;20577;-73
2023/03/24 04:27:45;;;;;;;9.07;8.13;;;12.70;99.90;;;;;;4898751;29;20251;-72
2023/03/24 04:30:41;;;;;;;9.47;8.27;;;12.70;99.90;;;;;;4881606;29;20183;-73
2023/03/24 04:33:17;;;;;;;9.90;8.60;;;12.70;99.90;;;;;;4898470;29;20270;-72
2023/03/24 04:35:51;;;;;;;8.73;8.13;;;12.70;99.90;;;;;;4897532;29;20207;-73
2023/03/24 04:38:26;;;;;;;8.23;7.50;;;12.70;99.90;;;;;;4882037;29;20188;-73
2023/03/24 04:40:54;;;;;;;8.73;7.93;;;12.70;99.90;;;;;;4899624;29;20184;-74
2023/03/24 04:43:24;;;;;;;7.57;7.07;;;12.70;99.90;;;;;;4898195;29;20190;-74
2023/03/24 04:45:56;;;;;;;9.27;8.23;;;12.60;99.90;;;;;;4881498;29;20196;-74
2023/03/24 04:48:23;;;;;;;8.43;8.00;;;12.60;99.90;;;;;;4879336;29;20192;-74
2023/03/24 04:51:09;;;;;;;7.77;7.37;;;12.50;99.90;;;;;;4879456;29;20198;-74
2023/03/24 04:53:35;;;;;;;7.93;7.33;;;12.50;99.90;;;;;;4888420;29;20602;-74
2023/03/24 04:56:28;;;;;;;7.30;6.80;;;12.50;99.90;;;;;;4881197;29;20183;-74
2023/03/24 04:58:55;;;;;;;8.27;7.50;;;12.50;99.90;;;;;;4880871;29;20275;-73
2023/03/24 05:01:21;;;;;;;7.33;6.60;;;12.50;99.90;;;;;;4880401;29;20235;-74
2023/03/24 05:03:48;;;;;;;8.57;7.87;;;12.60;99.90;;;;;;4880392;29;20295;-75
2023/03/24 05:06:15;;;;;;;8.73;8.13;;;12.60;99.90;;;;;;4897315;29;20212;-73
2023/03/24 05:08:41;;;;;;;8.90;8.20;;;12.60;99.90;;;;;;4897356;29;20190;-73
2023/03/24 05:11:07;;;;;;;8.67;8.07;;;12.60;99.90;;;;;;4897452;29;20271;-73
2023/03/24 05:13:33;;;;;;;9.03;8.33;;;12.60;99.90;;;;;;4880536;29;20251;-73
2023/03/24 05:15:58;;;;;;;9.63;9.13;;;12.60;99.90;;;;;;4896882;29;20192;-73
2023/03/24 05:18:24;;;;;;;17.20;16.10;;;12.70;99.90;;;;;;4896760;29;20198;-74
2023/03/24 05:20:50;;;;;;;24.67;23.30;;;12.70;99.90;;;;;;4880418;29;20548;-73
2023/03/24 05:23:16;;;;;;;26.63;25.17;;;12.80;99.90;;;;;;4897206;29;20194;-73
2023/03/24 05:25:42;;;;;;;19.07;18.00;;;12.80;99.90;;;;;;4896990;29;20263;-74
2023/03/24 05:28:08;;;;;;;20.20;19.17;;;13.10;99.90;;;;;;4893166;29;20215;-68
2023/03/24 05:30:34;;;;;;;5.90;5.50;;;13.60;99.90;;;;;;4894384;29;20188;-68
2023/03/24 05:32:59;;;;;;;6.37;5.77;;;14.10;99.90;;;;;;4901543;29;20191;-68
2023/03/24 05:35:25;;;;;;;9.57;8.97;;;14.60;99.90;;;;;;4915056;29;20742;-68
2023/03/24 05:37:52;;;;;;;10.57;9.87;;;15.00;99.90;;;;;;4915584;29;20193;-68
2023/03/24 05:40:18;;;;;;;13.10;12.40;;;15.20;99.90;;;;;;4912362;29;20547;-67
2023/03/24 05:42:44;;;;;;;22.83;21.80;;;15.30;99.90;;;;;;4896801;29;20198;-68
2023/03/24 05:45:10;;;;;;;23.97;22.77;;;15.40;99.90;;;;;;4879481;29;20318;-74
2023/03/24 05:47:37;;;;;;;18.80;17.60;;;15.50;99.90;;;;;;4896540;29;20227;-72
2023/03/24 05:50:04;;;;;;;10.17;9.57;;;15.40;99.90;;;;;;4876675;29;20199;-72
2023/03/24 05:52:30;;;;;;;7.20;6.90;;;15.20;99.90;;;;;;4878547;29;20211;-71
2023/03/24 05:54:57;;;;;;;4.53;4.33;;;14.90;99.90;;;;;;4877986;29;20196;-73
2023/03/24 05:57:23;;;;;;;8.17;7.67;;;14.60;99.90;;;;;;4910242;29;20769;-71
2023/03/24 05:59:48;;;;;;;9.83;9.33;;;14.20;99.90;;;;;;4910272;29;20188;-71
2023/03/24 06:02:14;;;;;;;23.33;22.13;;;13.80;99.90;;;;;;4895469;29;20240;-69
2023/03/24 06:04:44;;;;;;;15.53;14.47;;;13.60;99.90;;;;;;4895557;29;20763;-69
2023/03/24 06:07:11;;;;;;;83.60;79.23;;;13.40;99.90;;;;;;4895525;29;20211;-70
2023/03/24 06:09:41;;;;;;;14.20;13.43;;;13.10;99.90;;;;;;4910533;29;20258;-69
2023/03/24 06:12:07;;;;;;;9.53;9.03;;;13.00;99.90;;;;;;4914936;29;20380;-69
2023/03/24 06:14:33;;;;;;;25.47;24.13;;;12.90;99.90;;;;;;4914820;29;20222;-68
2023/03/24 06:16:59;;;;;;;32.57;30.77;;;12.80;99.90;;;;;;4914705;29;20189;-69
2023/03/24 06:19:26;;;;;;;25.10;23.83;;;12.70;99.90;;;;;;4914228;29;20183;-68
2023/03/24 06:21:53;;;;;;;18.23;17.13;;;12.70;99.90;;;;;;4879326;29;20302;-69
2023/03/24 06:24:19;;;;;;;16.63;14.10;;;12.70;99.90;;;;;;4895855;29;20207;-70
2023/03/24 06:26:48;;;;;;;30.43;28.33;;;12.60;99.90;;;;;;4895756;29;20233;-69
2023/03/24 06:29:16;;;;;;;35.63;33.80;;;12.60;99.90;;;;;;4895626;29;20187;-69
2023/03/24 06:31:44;;;;;;;51.47;48.57;;;12.60;99.90;;;;;;4895577;29;20184;-69
2023/03/24 06:34:10;;;;;;;49.43;46.20;;;12.60;99.90;;;;;;4895775;29;20572;-69
2023/03/24 06:36:36;;;;;;;39.50;37.43;;;12.60;99.90;;;;;;4879293;29;20198;-68
2023/03/24 06:39:04;;;;;;;34.87;32.90;;;12.60;99.90;;;;;;4896188;29;20179;-68
2023/03/24 06:41:31;;;;;;;33.83;31.67;;;12.60;99.90;;;;;;4895572;29;20191;-69
2023/03/24 06:43:57;;;;;;;34.37;31.93;;;12.60;99.90;;;;;;4895825;29;20307;-68
2023/03/24 06:46:23;;;;;;;25.50;23.57;;;12.60;99.90;;;;;;4876751;29;20220;-69
2023/03/24 06:48:49;;;;;;;18.83;17.37;;;12.60;99.90;;;;;;4881915;29;20262;-68
2023/03/24 06:51:16;;;;;;;17.03;15.57;;;12.70;99.90;;;;;;4895747;29;20179;-68
2023/03/24 06:53:44;;;;;;;16.63;15.13;;;12.70;99.90;;;;;;4879186;29;20203;-69
2023/03/24 06:56:15;;;;;;;21.40;19.80;;;12.80;99.90;;;;;;4897061;29;20625;-69
2023/03/24 06:58:41;;;;;;;24.37;22.50;;;12.80;99.90;;;;;;4898748;29;20188;-69
2023/03/24 07:01:07;;;;;;;37.27;35.20;;;12.90;99.90;;;;;;4897348;29;20188;-69
2023/03/24 07:03:33;;;;;;;45.37;42.37;;;12.90;99.90;;;;;;4895734;29;20211;-70
2023/03/24 07:05:59;;;;;;;44.70;41.93;;;12.90;99.90;;;;;;4896508;29;20195;-69
2023/03/24 07:08:25;;;;;;;36.43;34.17;;;12.90;99.90;;;;;;4899335;29;20183;-70
2023/03/24 07:10:51;;;;;;;38.83;36.03;;;12.90;99.90;;;;;;4899027;29;20187;-70
2023/03/24 07:13:16;;;;;;;21.70;20.17;;;12.90;99.90;;;;;;4899584;29;20188;-69
2023/03/24 07:15:42;;;;;;;18.27;17.03;;;13.00;99.90;;;;;;4899270;29;20225;-69
2023/03/24 07:18:08;;;;;;;15.63;14.53;;;12.90;99.90;;;;;;4899087;29;20531;-69
2023/03/24 07:20:33;;;;;;;13.40;12.07;;;12.90;99.90;;;;;;4899132;29;20194;-69
2023/03/24 07:22:59;;;;;;;15.87;14.60;;;12.90;99.90;;;;;;4899232;29;20254;-69
2023/03/24 07:25:25;;;;;;;17.73;16.57;;;13.00;99.90;;;;;;4898400;29;20212;-69
2023/03/24 07:27:55;;;;;;;19.30;17.83;;;12.90;99.90;;;;;;4903988;29;20226;-69
2023/03/24 07:30:21;;;;;;;21.63;20.20;;;12.90;99.90;;;;;;4897934;29;20184;-69
2023/03/24 07:32:48;;;;;;;22.50;20.53;;;13.00;99.90;;;;;;4900031;29;20302;-68
2023/03/24 07:35:15;;;;;;;19.00;17.10;;;13.00;99.90;;;;;;4898819;29;20207;-68
2023/03/24 07:37:41;;;;;;;17.40;16.00;;;13.00;99.90;;;;;;4899527;29;20195;-68
2023/03/24 07:40:12;;;;;;;16.07;14.13;;;12.90;99.90;;;;;;4882158;29;20184;-69
2023/03/24 07:42:40;;;;;;;13.03;11.77;;;12.90;99.90;;;;;;4898970;29;20198;-69
2023/03/24 07:45:08;;;;;;;12.70;11.07;;;12.90;99.90;;;;;;4898850;29;20211;-69
2023/03/24 07:47:34;;;;;;;24.47;22.33;;;12.70;99.90;;;;;;4898614;29;20208;-68
2023/03/24 07:50:02;;;;;;;19.37;16.10;;;12.60;99.90;;;;;;4898667;29;20203;-69
2023/03/24 07:52:29;;;;;;;91.10;85.17;;;12.60;99.90;;;;;;4882174;29;20188;-69
2023/03/24 07:54:55;;;;;;;121.57;114.87;;;12.60;99.90;;;;;;4899233;29;20267;-69
2023/03/24 07:57:22;;;;;;;53.97;50.73;;;12.60;99.90;;;;;;4898675;29;20192;-69
2023/03/24 07:59:47;;;;;;;38.63;36.33;;;12.60;99.90;;;;;;4898377;29;20180;-70
2023/03/24 08:02:17;;;;;;;32.37;30.33;;;12.60;99.90;;;;;;4898418;29;20573;-69
2023/03/24 08:04:43;;;;;;;46.20;43.50;;;12.60;99.90;;;;;;4881727;29;20223;-70
2023/03/24 08:07:11;;;;;;;33.70;31.77;;;12.70;99.90;;;;;;4882167;29;20222;-69
2023/03/24 08:09:38;;;;;;;35.13;32.90;;;12.60;99.90;;;;;;4898336;29;20570;-69
2023/03/24 08:12:03;;;;;;;30.13;28.03;;;12.50;99.90;;;;;;4898462;29;20180;-69
2023/03/24 08:14:29;;;;;;;25.83;24.13;;;12.60;99.90;;;;;;4881432;29;20226;-70
2023/03/24 08:16:55;;;;;;;22.23;17.97;;;12.60;99.90;;;;;;4898627;29;20282;-69
2023/03/24 08:19:21;;;;;;;19.23;17.20;;;12.50;99.90;;;;;;4897886;29;20207;-69
2023/03/24 08:21:47;;;;;;;15.57;14.47;;;12.50;99.90;;;;;;4898532;29;20188;-69
2023/03/24 08:24:13;;;;;;;15.60;14.37;;;12.60;99.90;;;;;;4898457;29;20372;-69
2023/03/24 08:26:39;;;;;;;10.70;9.87;;;12.60;99.90;;;;;;4898216;29;20211;-69
2023/03/24 08:29:05;;;;;;;12.63;11.63;;;12.70;99.90;;;;;;4897752;29;20211;-70
2023/03/24 08:31:35;;;;;;;10.87;9.87;;;12.60;99.90;;;;;;4898386;29;20201;-70
2023/03/24 08:34:03;;;;;;;10.50;9.80;;;12.70;99.90;;;;;;4897972;29;20199;-69
2023/03/24 08:36:29;;;;;;;8.47;7.67;;;12.70;99.90;;;;;;4898421;29;20234;-70
2023/03/24 08:38:55;;;;;;;9.43;8.60;;;12.80;99.90;;;;;;4897999;29;20274;-70
2023/03/24 08:41:29;;;;;;;9.07;8.50;;;12.80;99.90;;;;;;4898184;29;20660;-70
2023/03/24 08:43:55;;;;;;;8.60;8.10;;;12.90;99.90;;;;;;4897992;29;20207;-69
2023/03/24 08:46:21;;;;;;;11.07;10.17;;;13.00;99.90;;;;;;4916768;29;20209;-70
2023/03/24 08:48:47;;;;;;;12.47;11.57;;;13.10;99.90;;;;;;4916441;29;20557;-70
2023/03/24 08:51:15;;;;;;;14.97;13.97;;;13.20;99.90;;;;;;4917027;29;20190;-70
2023/03/24 08:53:42;;;;;;;15.50;14.40;;;13.30;99.90;;;;;;4916716;29;20274;-70
2023/03/24 08:56:08;;;;;;;16.47;15.37;;;13.40;99.90;;;;;;4916771;29;20183;-70
2023/03/24 08:58:34;;;;;;;14.23;13.23;;;13.40;99.90;;;;;;4906428;29;20248;-70
2023/03/24 09:01:01;;;;;;;24.93;23.47;;;13.50;99.90;;;;;;4897745;29;20278;-69
2023/03/24 09:03:27;;;;;;;23.63;22.40;;;13.40;99.90;;;;;;4897631;29;20195;-70
2023/03/24 09:05:56;;;;;;;24.03;22.33;;;13.40;99.90;;;;;;4897881;29;20203;-70
2023/03/24 09:08:23;;;;;;;23.07;21.53;;;13.30;99.90;;;;;;4897436;29;20191;-69
2023/03/24 09:10:50;;;;;;;27.70;26.17;;;13.40;99.90;;;;;;4880821;29;20661;-69
2023/03/24 09:13:17;;;;;;;15.17;14.23;;;13.40;99.90;;;;;;4881314;29;20190;-69
2023/03/24 09:15:48;;;;;;;18.03;16.87;;;13.50;99.90;;;;;;4898497;29;20224;-70
2023/03/24 09:18:14;;;;;;;43.10;40.87;;;13.70;99.90;;;;;;4899207;29;20550;-71
2023/03/24 09:20:40;;;;;;;23.77;22.10;;;13.80;99.90;;;;;;4916311;29;20201;-70
2023/03/24 09:23:06;;;;;;;26.73;25.23;;;13.80;99.90;;;;;;4916457;29;20190;-70
2023/03/24 09:25:32;;;;;;;10.70;9.77;;;13.90;99.90;;;;;;4899571;29;20203;-70
2023/03/24 09:27:58;;;;;;;88.70;84.03;;;13.90;99.90;;;;;;4900238;29;20212;-71
2023/03/24 09:30:23;;;;;;;138.53;131.43;;;13.90;99.90;;;;;;4896707;29;20248;-69
2023/03/24 09:32:49;;;;;;;33.63;31.53;;;14.00;99.90;;;;;;4880627;29;20764;-69
2023/03/24 09:35:15;;;;;;;20.47;19.17;;;14.10;99.90;;;;;;4897178;29;20263;-70
2023/03/24 09:37:42;;;;;;;23.03;21.77;;;14.00;99.90;;;;;;4897347;29;20188;-71
2023/03/24 09:40:21;;;;;;;21.30;19.83;;;14.00;99.90;;;;;;4879362;29;20179;-70
2023/03/24 09:42:54;;;;;;;25.37;23.70;;;14.00;99.90;;;;;;4897214;29;20188;-70
2023/03/24 09:45:22;;;;;;;22.00;20.83;;;14.20;99.90;;;;;;4896973;29;20204;-70
2023/03/24 09:47:53;;;;;;;7.53;6.80;;;14.30;99.90;;;;;;4896829;29;20657;-69
2023/03/24 09:50:47;;;;;;;7.53;7.03;;;14.50;99.90;;;;;;4879803;29;20194;-70
2023/03/24 09:53:37;;;;;;;18.73;17.77;;;14.60;99.90;;;;;;4897186;29;20789;-69
2023/03/24 09:56:13;;;;;;;13.73;12.93;;;14.80;99.90;;;;;;4880058;29;20215;-69
2023/03/24 09:58:40;;;;;;;11.77;10.97;;;15.00;99.90;;;;;;4896378;29;20195;-69
2023/03/24 10:01:14;;;;;;;11.80;11.07;;;15.30;99.90;;;;;;4879759;29;20190;-69
2023/03/24 10:03:42;;;;;;;12.00;11.37;;;15.40;99.90;;;;;;4896669;29;20184;-69
2023/03/24 10:06:25;;;;;;;9.83;9.33;;;15.40;99.90;;;;;;4880105;29;20191;-68
2023/03/24 10:09:17;;;;;;;7.97;7.57;;;15.50;99.90;;;;;;4895633;29;20192;-70
2023/03/24 10:11:55;;;;;;;23.13;21.87;;;15.70;99.90;;;;;;4879562;29;20187;-69
2023/03/24 10:14:39;;;;;;;27.93;26.30;;;15.80;99.90;;;;;;4917752;23;20230;-70
2023/03/24 10:17:24;;;;;;;32.70;31.10;;;16.10;99.90;;;;;;4913337;29;20199;-71
2023/03/24 10:20:17;;;;;;;16.30;15.60;;;16.60;99.90;;;;;;4912638;29;20818;-71
2023/03/24 10:23:25;;;;;;;8.50;8.10;;;17.40;99.90;;;;;;4914680;29;20274;-71
2023/03/24 10:26:07;;;;;;;8.03;7.53;;;18.00;99.90;;;;;;4880849;29;20223;-71
2023/03/24 10:28:46;;;;;;;10.07;9.60;;;18.20;99.90;;;;;;4891652;29;20278;-75
2023/03/24 10:31:16;;;;;;;13.33;12.70;;;17.90;99.90;;;;;;4883879;29;20188;-68
2023/03/24 10:33:44;;;;;;;8.33;7.83;;;17.90;99.90;;;;;;4895111;29;20184;-70
2023/03/24 10:36:14;;;;;;;10.30;9.77;;;17.90;99.90;;;;;;4894669;29;20207;-70
2023/03/24 10:38:40;;;;;;;9.10;8.60;;;17.90;99.90;;;;;;4892533;29;20191;-71
2023/03/24 10:41:12;;;;;;;13.03;12.40;;;17.70;99.90;;;;;;4894018;29;20541;-71
2023/03/24 10:43:38;;;;;;;18.00;17.20;;;17.90;99.90;;;;;;4881722;29;20247;-71
2023/03/24 10:46:05;;;;;;;15.57;14.83;;;18.20;99.90;;;;;;4881305;29;20211;-71
2023/03/24 10:48:39;;;;;;;13.80;13.10;;;18.20;99.90;;;;;;4893072;29;20288;-70
2023/03/24 10:51:05;;;;;;;14.07;13.23;;;17.70;99.90;;;;;;4881284;29;20199;-71
2023/03/24 10:53:36;;;;;;;14.33;13.40;;;17.40;99.90;;;;;;4899604;29;20187;-70
2023/03/24 10:56:02;;;;;;;8.97;8.60;;;17.20;99.90;;;;;;4910891;29;20212;-70
2023/03/24 10:58:37;;;;;;;5.13;4.73;;;17.10;99.90;;;;;;4894864;29;20189;-72
2023/03/24 11:01:29;;;;;;;5.10;4.80;;;17.10;99.90;;;;;;4891475;29;20225;-71
2023/03/24 11:04:06;;;;;;;4.90;4.63;;;17.10;99.90;;;;;;4879061;29;20191;-71
2023/03/24 11:06:32;;;;;;;5.37;5.17;;;17.10;99.90;;;;;;4895832;29;20243;-71
2023/03/24 11:09:41;;;;;;;4.73;4.43;;;16.80;99.90;;;;;;4895124;29;20184;-71
2023/03/24 11:12:28;;;;;;;6.20;5.90;;;16.50;99.90;;;;;;4852481;29;20191;-71
2023/03/24 11:15:30;;;;;;;13.73;13.03;;;16.40;99.90;;;;;;4895328;29;20318;-71
2023/03/24 11:18:02;;;;;;;13.90;13.30;;;16.50;99.90;;;;;;4883454;29;20199;-71
2023/03/24 11:20:49;;;;;;;13.60;12.87;;;16.50;99.90;;;;;;4895392;29;20230;-71
2023/03/24 11:23:25;;;;;;;6.87;6.57;;;16.50;99.90;;;;;;4895631;29;20614;-71
2023/03/24 11:26:06;;;;;;;4.53;4.33;;;16.70;99.90;;;;;;4878862;29;20212;-71
2023/03/24 11:28:41;;;;;;;4.07;3.90;;;16.90;99.90;;;;;;4877087;29;20279;-71
2023/03/24 11:31:10;;;;;;;4.07;3.87;;;17.10;99.90;;;;;;4860279;29;20652;-71
2023/03/24 11:33:55;;;;;;;5.97;5.77;;;17.30;99.90;;;;;;4877150;29;20196;-71
2023/03/24 11:36:31;;;;;;;10.77;10.30;;;17.60;99.90;;;;;;4876800;29;20188;-71
2023/03/24 11:39:20;;;;;;;11.03;10.43;;;17.90;99.90;;;;;;4876553;29;20268;-71
2023/03/24 11:42:11;;;;;;;12.57;12.03;;;18.20;99.90;;;;;;4881704;29;20314;-72
2023/03/24 11:44:37;;;;;;;13.23;12.53;;;18.30;99.90;;;;;;4883971;29;20207;-71
2023/03/24 11:47:24;;;;;;;11.90;11.40;;;18.30;99.90;;;;;;4876903;29;20279;-71
2023/03/24 11:50:10;;;;;;;17.37;16.57;;;18.10;99.90;;;;;;4875412;29;20677;-71
2023/03/24 11:53:14;;;;;;;24.20;23.10;;;18.50;99.90;;;;;;4878551;29;20668;-76
2023/03/24 11:56:02;;;;;;;27.87;26.50;;;18.40;99.90;;;;;;4889977;29;20215;-76
2023/03/24 11:58:45;;;;;;;26.43;25.27;;;18.30;99.90;;;;;;4880225;29;20184;-74
2023/03/24 12:01:25;;;;;;;19.40;18.57;;;18.20;99.90;;;;;;4879557;29;20715;-74
2023/03/24 12:04:16;;;;;;;29.40;27.50;;;17.80;99.90;;;;;;4880736;29;20211;-73
2023/03/24 12:07:06;;;;;;;19.00;18.20;;;17.60;99.90;;;;;;4863304;29;20240;-74
2023/03/24 12:09:45;;;;;;;21.97;20.87;;;17.40;99.90;;;;;;4879976;29;20248;-74
2023/03/24 12:12:25;;;;;;;20.03;19.07;;;17.20;99.90;;;;;;4880166;29;20652;-73
2023/03/24 12:15:12;;;;;;;19.07;18.07;;;17.00;99.90;;;;;;4880013;29;20673;-74
2023/03/24 12:18:14;;;;;;;15.90;14.80;;;17.00;99.90;;;;;;4882476;29;20227;-73
2023/03/24 12:20:52;;;;;;;13.87;13.27;;;17.00;99.90;;;;;;4876463;29;20195;-74
2023/03/24 12:23:27;;;;;;;11.43;10.93;;;17.20;99.90;;;;;;4898750;29;20218;-73
2023/03/24 12:26:15;;;;;;;16.43;15.63;;;17.40;99.90;;;;;;4898658;29;20211;-74
2023/03/24 12:28:53;;;;;;;22.47;21.47;;;17.50;99.90;;;;;;4898403;29;20188;-74
2023/03/24 12:31:37;;;;;;;29.90;28.57;;;17.40;99.90;;;;;;4897817;29;20205;-74
2023/03/24 12:34:48;;;;;;;34.83;33.13;;;17.20;99.90;;;;;;4898675;29;20195;-74
2023/03/24 12:37:20;;;;;;;26.47;24.93;;;17.20;99.90;;;;;;4876623;29;20200;-74
2023/03/24 12:40:22;;;;;;;41.83;39.77;;;17.30;99.90;;;;;;4898317;29;20216;-73
2023/03/24 12:43:00;;;;;;;44.93;42.63;;;17.20;99.90;;;;;;4888662;29;20203;-73
2023/03/24 12:45:29;;;;;;;32.97;31.27;;;17.20;99.90;;;;;;4897848;29;20208;-74
2023/03/24 12:48:28;;;;;;;39.63;37.73;;;17.20;99.90;;;;;;4897618;29;20350;-73
2023/03/24 12:51:21;;;;;;;44.87;42.67;;;17.10;99.90;;;;;;4898465;29;20191;-74
2023/03/24 12:54:12;;;;;;;48.33;45.93;;;17.10;99.90;;;;;;4881655;29;20653;-73
2023/03/24 12:56:53;;;;;;;37.93;36.10;;;17.10;99.90;;;;;;4898798;29;20235;-73
2023/03/24 12:59:46;;;;;;;27.97;26.23;;;17.00;99.90;;;;;;4877812;29;20184;-74
2023/03/24 13:02:30;;;;;;;40.33;38.47;;;16.90;99.90;;;;;;4869472;29;20200;-74
2023/03/24 13:05:04;;;;;;;58.83;56.03;;;16.80;99.90;;;;;;4878996;29;20272;-75
2023/03/24 13:07:36;;;;;;;46.53;44.37;;;16.60;99.90;;;;;;4879469;29;20281;-74
2023/03/24 13:10:05;;;;;;;32.17;30.43;;;16.50;99.90;;;;;;4879193;29;20184;-75
2023/03/24 13:12:36;;;;;;;31.13;29.73;;;16.40;99.90;;;;;;4862712;29;20176;-75
2023/03/24 13:15:21;;;;;;;38.10;36.17;;;16.50;99.90;;;;;;4880636;29;20276;-75
2023/03/24 13:18:15;;;;;;;30.23;28.83;;;16.40;99.90;;;;;;4864420;29;20649;-74
2023/03/24 13:21:02;;;;;;;36.13;34.47;;;16.50;99.90;;;;;;4878944;29;20612;-74
2023/03/24 13:23:43;;;;;;;23.93;22.83;;;16.50;99.90;;;;;;4862000;29;20290;-73
2023/03/24 13:26:33;;;;;;;34.87;33.27;;;16.40;99.90;;;;;;4862494;29;20251;-73
2023/03/24 13:29:02;;;;;;;24.07;22.97;;;16.40;99.90;;;;;;4893993;29;20661;-73
2023/03/24 13:31:35;;;;;;;26.13;24.83;;;16.40;99.90;;;;;;4862231;29;20204;-73
2023/03/24 13:34:03;;;;;;;25.67;24.43;;;16.50;99.90;;;;;;4878822;29;20208;-73
2023/03/24 13:36:49;;;;;;;22.57;21.57;;;16.50;99.90;;;;;;4867005;29;20284;-73
2023/03/24 13:39:21;;;;;;;22.27;21.30;;;16.50;99.90;;;;;;4865338;29;20286;-73
2023/03/24 13:41:50;;;;;;;20.77;19.87;;;16.50;99.90;;;;;;4873073;29;20192;-73
2023/03/24 13:44:18;;;;;;;20.40;19.50;;;16.30;99.90;;;;;;4880000;29;20207;-73
2023/03/24 13:47:01;;;;;;;15.10;14.50;;;16.30;99.90;;;;;;4897060;29;20772;-73
2023/03/24 13:49:30;;;;;;;15.73;15.00;;;16.20;99.90;;;;;;4880382;29;20207;-73
2023/03/24 13:51:56;;;;;;;22.93;21.03;;;16.00;99.90;;;;;;4880762;29;20224;-72
2023/03/24 13:54:25;;;;;;;17.20;15.83;;;15.90;99.90;;;;;;4898545;29;20212;-72
2023/03/24 13:57:07;;;;;;;4.27;3.87;;;15.70;99.90;;;;;;4895449;29;20617;-71
2023/03/24 14:00:00;;;;;;;10.57;10.07;;;15.30;99.90;;;;;;4912837;29;20606;-70
2023/03/24 14:02:29;;;;;;;25.07;23.90;;;13.90;99.90;;;;;;4915738;29;20273;-70
2023/03/24 14:05:04;;;;;;;76.60;72.50;;;12.90;99.90;;;;;;4914259;29;20199;-70
2023/03/24 14:07:40;;;;;;;88.03;83.57;;;12.40;99.90;;;;;;4915360;29;20622;-70
2023/03/24 14:10:15;;;;;;;23.20;21.73;;;12.10;99.90;;;;;;4896850;29;20186;-70
2023/03/24 14:13:00;;;;;;;73.87;70.07;;;11.90;99.90;;;;;;4896756;29;20271;-70
2023/03/24 14:15:30;;;;;;;56.47;53.63;;;11.80;99.90;;;;;;4879829;29;20222;-70
2023/03/24 14:18:14;;;;;;;68.93;65.17;;;11.80;99.90;;;;;;4879706;29;20194;-71
2023/03/24 14:21:05;;;;;;;58.73;55.57;;;11.70;99.90;;;;;;4896374;29;20214;-71
2023/03/24 14:23:36;;;;;;;32.00;30.23;;;11.80;99.90;;;;;;4883529;29;20180;-68
2023/03/24 14:26:23;;;;;;;8.97;8.23;;;12.00;99.90;;;;;;4877810;29;20209;-68
2023/03/24 14:28:51;;;;;;;6.00;5.50;;;12.10;99.90;;;;;;4875519;29;20286;-69
2023/03/24 14:31:25;;;;;;;14.23;13.37;;;12.20;99.90;;;;;;4891613;29;20188;-67
2023/03/24 14:33:51;;;;;;;16.10;15.27;;;12.10;99.90;;;;;;4877497;29;20199;-68
2023/03/24 14:36:29;;;;;;;23.97;22.43;;;12.00;99.90;;;;;;4881520;29;20180;-67
2023/03/24 14:38:56;;;;;;;413.23;385.27;;;11.70;99.90;;;;;;4895817;29;20195;-69
2023/03/24 14:41:37;;;;;;;112.30;105.70;;;11.70;99.90;;;;;;4898528;29;20644;-69
2023/03/24 14:44:04;;;;;;;273.40;256.87;;;11.50;99.90;;;;;;4914822;29;20186;-68
2023/03/24 14:46:40;;;;;;;52.83;49.90;;;11.50;99.90;;;;;;4912646;29;20222;-68
2023/03/24 14:49:22;;;;;;;22.23;20.77;;;11.30;99.90;;;;;;4860572;29;20563;-68
2023/03/24 14:52:11;;;;;;;6.60;6.17;;;11.20;99.90;;;;;;4877561;29;20736;-69
2023/03/24 14:54:44;;;;;;;20.53;19.33;;;11.20;99.90;;;;;;4896756;29;20262;-68
2023/03/24 14:57:29;;;;;;;34.37;32.50;;;11.10;99.90;;;;;;4879849;29;20213;-68
2023/03/24 15:00:17;;;;;;;20.17;19.23;;;11.20;99.90;;;;;;4895660;29;20567;-74
2023/03/24 15:02:50;;;;;;;12.73;12.00;;;11.20;99.90;;;;;;4896090;29;20226;-69
2023/03/24 15:05:21;;;;;;;11.97;11.07;;;11.20;99.90;;;;;;4880758;29;20299;-68
2023/03/24 15:08:17;;;;;;;11.17;10.57;;;11.20;99.90;;;;;;4877159;29;20700;-68
2023/03/24 15:11:04;;;;;;;7.87;7.47;;;11.30;99.90;;;;;;4877105;29;20177;-68
2023/03/24 15:13:33;;;;;;;8.30;7.70;;;11.30;99.90;;;;;;4877401;29;20657;-68
2023/03/24 15:16:00;;;;;;;7.33;6.67;;;11.40;99.90;;;;;;4877238;29;20477;-69
2023/03/24 15:18:26;;;;;;;7.23;5.97;;;11.40;99.90;;;;;;4885935;29;20188;-70
2023/03/24 15:20:52;;;;;;;7.13;6.50;;;11.50;99.90;;;;;;4896083;29;20271;-71
2023/03/24 15:23:24;;;;;;;9.43;8.77;;;11.40;99.90;;;;;;4896574;29;20183;-71
2023/03/24 15:25:51;;;;;;;6.83;5.70;;;11.30;99.90;;;;;;4896415;29;20222;-70
2023/03/24 15:28:23;;;;;;;6.80;6.30;;;11.30;99.90;;;;;;4898644;29;20211;-70
2023/03/24 15:30:49;;;;;;;6.57;6.10;;;11.30;99.90;;;;;;4883156;29;20612;-70
2023/03/24 15:33:15;;;;;;;13.63;12.23;;;11.30;99.90;;;;;;4866221;29;20188;-70
2023/03/24 15:35:43;;;;;;;12.63;11.47;;;11.40;99.90;;;;;;4864289;29;20211;-71
2023/03/24 15:38:20;;;;;;;6.67;6.27;;;11.40;99.90;;;;;;4880952;29;20191;-70
2023/03/24 15:41:15;;;;;;;6.97;6.57;;;11.30;99.90;;;;;;4864301;29;20219;-70
2023/03/24 15:43:52;;;;;;;8.10;7.70;;;11.30;99.90;;;;;;4878638;29;20203;-70
2023/03/24 15:46:30;;;;;;;6.70;6.30;;;11.30;99.90;;;;;;4891157;29;20198;-70
2023/03/24 15:48:58;;;;;;;6.50;6.20;;;11.30;99.90;;;;;;4882418;29;20224;-70
2023/03/24 15:51:47;;;;;;;8.67;8.17;;;11.20;99.90;;;;;;4899706;29;20559;-70
2023/03/24 15:54:38;;;;;;;14.50;13.77;;;11.20;99.90;;;;;;4882731;29;20207;-71
2023/03/24 15:57:17;;;;;;;23.43;22.17;;;11.20;99.90;;;;;;4892411;29;20569;-70
2023/03/24 16:00:10;;;;;;;36.00;34.20;;;11.20;99.90;;;;;;4891370;29;20185;-70
2023/03/24 16:02:52;;;;;;;17.63;16.60;;;11.20;99.90;;;;;;4880559;29;20188;-70
2023/03/24 16:05:28;;;;;;;13.93;12.77;;;11.30;99.90;;;;;;4863911;29;20625;-70
2023/03/24 16:08:04;;;;;;;14.80;13.77;;;11.30;99.90;;;;;;4880556;29;20223;-70
2023/03/24 16:10:43;;;;;;;11.50;10.70;;;11.30;99.90;;;;;;4879168;29;20219;-72
2023/03/24 16:13:17;;;;;;;15.43;14.07;;;11.30;99.90;;;;;;4890187;29;20549;-74
2023/03/24 16:16:12;;;;;;;9.10;8.30;;;11.40;99.90;;;;;;4901656;23;20250;-73
2023/03/24 16:18:43;;;;;;;8.00;6.70;;;11.40;99.90;;;;;;4897739;29;20267;-71
2023/03/24 16:21:27;;;;;;;6.13;5.00;;;11.50;99.90;;;;;;4898773;29;20188;-70
2023/03/24 16:23:55;;;;;;;5.70;5.37;;;11.50;99.90;;;;;;4898775;29;20184;-71
2023/03/24 16:26:23;;;;;;;5.80;5.40;;;11.50;99.90;;;;;;4898413;29;20207;-72
2023/03/24 16:28:50;;;;;;;9.90;9.07;;;11.50;99.90;;;;;;4880918;29;20191;-70
2023/03/24 16:31:23;;;;;;;9.60;9.00;;;11.50;99.90;;;;;;4898217;29;20188;-71
2023/03/24 16:33:50;;;;;;;7.83;7.33;;;11.50;99.90;;;;;;4898393;29;20180;-70
2023/03/24 16:36:17;;;;;;;5.30;5.07;;;11.50;99.90;;;;;;4898279;29;20199;-71
2023/03/24 16:38:47;;;;;;;10.30;9.43;;;11.50;99.90;;;;;;4880112;29;20184;-70
2023/03/24 16:41:14;;;;;;;8.73;8.00;;;11.50;99.90;;;;;;4897574;29;20219;-71
2023/03/24 16:43:40;;;;;;;7.70;7.20;;;11.70;99.90;;;;;;4881435;29;20183;-71
2023/03/24 16:46:19;;;;;;;4.50;4.20;;;11.70;99.90;;;;;;4881412;29;20219;-72
2023/03/24 16:48:45;;;;;;;17.23;9.57;;;11.70;99.90;;;;;;4897840;29;20187;-71
2023/03/24 16:51:15;;;;;;;48.30;23.87;;;11.60;99.90;;;;;;4898075;29;20194;-72
2023/03/24 16:53:42;;;;;;;18.83;13.50;;;11.60;99.90;;;;;;4881443;29;20191;-71
2023/03/24 16:56:10;;;;;;;12.00;8.10;;;11.70;99.90;;;;;;4889298;29;20224;-71
2023/03/24 16:58:36;;;;;;;7.50;6.67;;;11.70;99.90;;;;;;4862307;29;20252;-71
2023/03/24 17:01:12;;;;;;;11.30;6.97;;;11.80;99.90;;;;;;4862589;29;20192;-72
2023/03/24 17:03:38;;;;;;;33.83;31.93;;;11.80;99.90;;;;;;4879590;29;20198;-72
2023/03/24 17:06:05;;;;;;;28.50;26.83;;;11.80;99.90;;;;;;4879620;29;20295;-72